Terminal Aerodrome Forecast
Issued by NWS

Home | Current Version | Previous Version | Graphics & Text | Print | Product List | Glossary On
Versions: 1 2 3 4 5 6 7 8 9 10 11 12
160
FTUS43 KMPX 220520
TAFRNH
TAF
KRNH 220520Z 2206/2306 15007KT P6SM SCT100 WS020/20040KT
     FM220800 16007KT P6SM VCTS BKN060CB WS020/21040KT
     FM221200 17009KT P6SM SCT050 OVC120
     FM221600 18012G19KT P6SM BKN150
     FM230200 17009KT P6SM SCT150 WS020/19040KT=

USA.gov is the U.S. government's official web portal to all federal, state and local government web resources and services.